Disclaimer

Please do not use the information listed here in-flight or in-navigation, as they are not provided to us by the airports but are provided by volunteers, so they might be outdated.

Search


Regions


Airport information page

Radio informations:
HOHHOT TWR - 118.1 MHz

Airport informations:
Latitude: 40° 51' 05.12" N
Longitude: 111° 49' 26.77" E
Elevation: 3556 feet - 1084 meters
Operating hours: Remarks
Operating agency: Civil government, landing fees and diplomatic clearance may be required
Timezone: UTC+8
Fuel: N/A

Runway information:
08/26 - 10501 x 148 feet< - >3201 x 45 meters
08R/26L - 11811 x 148 feet< - >3600 x 45 meters

Recent METARs:
ZBHH 211600Z 07002MPS 360V110 CAVOK M10/M16 Q1026 NOSIG
ZBHH 211700Z 06002MPS 020V080 CAVOK M11/M16 Q1025 NOSIG
ZBHH 211700Z 06002MPS 020V080 CAVOK M11/M16 Q1025 NOSIG

Airport on the map: